Terminal Aerodrome Forecast
Issued by NWS Jackson, MS

Current Version | Previous Version | Text Only | Print | Product List | Glossary On
Versions: 1 2 3 4 5 6 7 8 9 10 11 12 13 14 15 16
427
FTUS44 KMEG 251130
TAFTUP
TAF
KTUP 251130Z 2512/2612 28008G16KT P6SM SKC
     FM260000 36004KT P6SM SKC
     FM260600 00000KT P6SM SKC=

USA.gov is the U.S. government's official web portal to all federal, state and local government web resources and services.